Norwegian Epic — C6XP7 — position and weather

sailwx.info

Track history (hours):
 
Tides and Currents Weather Stations Pressure Air Temp Water Temp Dewpoint Dewpoint Depression Visibility Wind Speed Wind Dir Waves Ship Positions

Norwegian Epic

Last reported at 2016-Sep-25 21:33 UTC. Time now 2016-Sep-26 03:38 UTC.
Position N 41°16' E 003°52'.

Length 329 m; draft 9.2 m.

Type: Passenger vessel. MMSI: 311018500.

Date/timePositionNaut miles runAvg speedWind from/ knotsBaromVisibWave heightAir tempDewpointWater temp
2016-Sep-25 21:33N 41°16' E 003°52'6816.8
2016-Sep-25 17:30N 41°15' E 002°21'1010.1
2016-Sep-25 16:32N 41°21' E 002°10'98 4.6
2016-Sep-24 19:20N 42°18' E 003°58'5318.1
2016-Sep-24 16:26N 42°55' E 004°48'3316.7
2016-Sep-24 14:29N 43°20' E 005°17'2 1.1
2016-Sep-24 12:30N 43°21' E 005°20'0 0.0
2016-Sep-24 10:25N 43°21' E 005°20'0 0.0
2016-Sep-24 09:26N 43°21' E 005°20'6 1.0
2016-Sep-24 03:33N 43°18' E 005°13'78 7.8
2016-Sep-23 17:33N 43°18' E 007°00'1211.7
2016-Sep-23 16:33N 43°30' E 007°00'2 2.3
2016-Sep-23 15:32N 43°32' E 007°01'0 0.0
2016-Sep-23 13:33N 43°32' E 007°01'0 0.0
2016-Sep-23 09:33N 43°32' E 007°01'0 0.0
2016-Sep-23 06:32N 43°32' E 007°01'5 2.8
2016-Sep-23 04:33N 43°28' E 007°06'1211.9
2016-Sep-23 03:31N 43°28' E 007°23'1311.9
2016-Sep-23 02:28N 43°28' E 007°40'1612.5
2016-Sep-23 01:10N 43°30' E 008°03'1112.5
2016-Sep-23 00:17N 43°29' E 008°18'912.6
2016-Sep-22 23:34N 43°30' E 008°30'4013.2
2016-Sep-22 20:34N 43°31' E 009°25'38 4.8
2016-Sep-22 12:32N 43°33' E 010°18'0 0.0
2016-Sep-22 04:34N 43°33' E 010°18'8 8.2
2016-Sep-22 03:33N 43°26' E 010°12'  
2016-Sep-18 19:33N 41°15' E 003°07'43 2.5
2016-Sep-18 02:19N 41°20' E 002°10'7 8.2
2016-Sep-18 01:31N 41°18' E 002°19'18215.2
2016-Sep-17 13:33N 43°21' E 005°20'0 0.0
2016-Sep-17 12:33N 43°21' E 005°20'0 0.0
2016-Sep-17 08:27N 43°21' E 005°20'0 0.0
2016-Sep-17 07:13N 43°21' E 005°20'0 0.1
2016-Sep-17 04:33N 43°21' E 005°20'73 6.6
2016-Sep-16 17:33N 43°23' E 007°00'10 4.7
2016-Sep-16 15:32N 43°32' E 007°01'0 0.1
2016-Sep-16 12:33N 43°32' E 007°01'0 0.1
2016-Sep-16 09:33N 43°32' E 007°01'0 0.2
2016-Sep-16 07:33N 43°32' E 007°01'17 4.3
2016-Sep-16 03:33N 43°28' E 007°24'3812.5
2016-Sep-16 00:33N 43°28' E 008°16'2512.5
2016-Sep-15 22:33N 43°30' E 008°50'1312.8
2016-Sep-15 21:33N 43°31' E 009°08'  
Track history (hours):
 
Tides and Currents Weather Stations Pressure Air Temp Water Temp Dewpoint Dewpoint Depression Visibility Wind Speed Wind Dir Waves Ship Positions

Norwegian Epic

Last reported at 2016-Sep-25 21:33 UTC. Time now 2016-Sep-26 03:38 UTC.
Position N 41°16' E 003°52'.

Length 329 m; draft 9.2 m.

Type: Passenger vessel. MMSI: 311018500.

Date/timePositionNaut miles runAvg speedWind from/ knotsBaromVisibWave heightAir tempDewpointWater temp
2016-Sep-25 21:33N 41°16' E 003°52'6816.8
2016-Sep-25 17:30N 41°15' E 002°21'1010.1
2016-Sep-25 16:32N 41°21' E 002°10'98 4.6
2016-Sep-24 19:20N 42°18' E 003°58'5318.1
2016-Sep-24 16:26N 42°55' E 004°48'3316.7
2016-Sep-24 14:29N 43°20' E 005°17'2 1.1
2016-Sep-24 12:30N 43°21' E 005°20'0 0.0
2016-Sep-24 10:25N 43°21' E 005°20'0 0.0
2016-Sep-24 09:26N 43°21' E 005°20'6 1.0
2016-Sep-24 03:33N 43°18' E 005°13'78 7.8
2016-Sep-23 17:33N 43°18' E 007°00'1211.7
2016-Sep-23 16:33N 43°30' E 007°00'2 2.3
2016-Sep-23 15:32N 43°32' E 007°01'0 0.0
2016-Sep-23 13:33N 43°32' E 007°01'0 0.0
2016-Sep-23 09:33N 43°32' E 007°01'0 0.0
2016-Sep-23 06:32N 43°32' E 007°01'5 2.8
2016-Sep-23 04:33N 43°28' E 007°06'1211.9
2016-Sep-23 03:31N 43°28' E 007°23'1311.9
2016-Sep-23 02:28N 43°28' E 007°40'1612.5
2016-Sep-23 01:10N 43°30' E 008°03'1112.5
2016-Sep-23 00:17N 43°29' E 008°18'912.6
2016-Sep-22 23:34N 43°30' E 008°30'4013.2
2016-Sep-22 20:34N 43°31' E 009°25'38 4.8
2016-Sep-22 12:32N 43°33' E 010°18'0 0.0
2016-Sep-22 04:34N 43°33' E 010°18'8 8.2
2016-Sep-22 03:33N 43°26' E 010°12'  
2016-Sep-18 19:33N 41°15' E 003°07'43 2.5
2016-Sep-18 02:19N 41°20' E 002°10'7 8.2
2016-Sep-18 01:31N 41°18' E 002°19'18215.2
2016-Sep-17 13:33N 43°21' E 005°20'0 0.0
2016-Sep-17 12:33N 43°21' E 005°20'0 0.0
2016-Sep-17 08:27N 43°21' E 005°20'0 0.0
2016-Sep-17 07:13N 43°21' E 005°20'0 0.1
2016-Sep-17 04:33N 43°21' E 005°20'73 6.6
2016-Sep-16 17:33N 43°23' E 007°00'10 4.7
2016-Sep-16 15:32N 43°32' E 007°01'0 0.1
2016-Sep-16 12:33N 43°32' E 007°01'0 0.1
2016-Sep-16 09:33N 43°32' E 007°01'0 0.2
2016-Sep-16 07:33N 43°32' E 007°01'17 4.3
2016-Sep-16 03:33N 43°28' E 007°24'3812.5
2016-Sep-16 00:33N 43°28' E 008°16'2512.5
2016-Sep-15 22:33N 43°30' E 008°50'1312.8
2016-Sep-15 21:33N 43°31' E 009°08'  

Dump ship's entire track history